Current Conditions

Updated: 25-Jul-2014 12:57pm  
Summary / Temperature Wind Rain






Feels like: 95°F

1-hour difference
4.0°F 4.0°F warmer than last hour.

24-hour difference
7.3°F7.3°F warmer than yesterday at this time.

  Today Yesterday
High: 96.6°F
12:56pm
97.4°F
4:02pm
Low: 67.6°F
5:39am
63.6°F
6:23am
 Wind from NNW NNW
1.4
Gust:  1 mph
0 Beaufort - Light Air

Today: 7 - 11:53am
Month: 12 mph - Jul 12
Rain Today: 0.00 in
Current Rate (/hr): 0.00 in
Max Rate (/hr):
Rain Yesterday: 0.00 in
Storm Rain: 0.00 in
This Month: 0.00 in
Season Total: 0.00 in
Last Rain Event: 79 days ago
Humidity / Barometer Sun / Moon
Humidity: 26 Decreased 7.0% in the last hour.
Dew Point: 56.1°F Decreased 3.1°F in the last hour.
Barometer: 29.783 inHg  
Baro Trend: Steady
Sunrise: 5:58am
Sunset: 8:07pm
Moonrise: 4:58am
Moonset: 6:22pm
Sky Conditions UV Index
Sky: Clear
Visibility: 10 miles
Clouds: None
Current: 12.0  Extreme 
Friday: 9.1  Very High 
Saturday: 10.3  Very High 
Air Quality Fire Danger
PM 2.5 Moderate
Ozone Moderate
Current: 74  Moderate 

Local Alerts Local Forecast
Local NWS Alerts
Today

Very
Hot
High 102
Tonight

Partly
Cloudy
Low 70
Sat

Very
Hot
High 104
Sat night

Partly
Cloudy
Low 72
Sun

Very
Hot
High 104
Sun night

Mostly
Clear
Low 73
Mon

Very
Hot
High 103

Local Radar Local Satellite Neighborhood Cam Sky Cam
Local Radar Local Satellite Neighborhood Cam Sky Cam


Nearby METAR Reports

KPTV - Porterville, California, USA
Distance from station: SSW 4mi, 7km
Updated: Fri, 25-Jul-2014 12:35pm PDT
Clear
Clear
 Wind from W
Wind: W 8 mph , 13 km/h
Temperature: 95°F , 35°C
Dew Point: 54°F , 12°C
Humidity: 25%
Barometer: 29.87 inHg , 1011.5 hPa
Clouds: Clear
Visibility: 10 miles , 16 km
2014/07/25 19:35 KPTV 251935Z AUTO 28007KT 10SM CLR 35/12 A2987 RMK AO1
KVIS - Visalia, California, USA
Distance from station: NW 27mi, 43km
Updated: Fri, 25-Jul-2014 12:35pm PDT
Clear
Clear
 Wind from WNW
Wind: WNW 5 mph , 7 km/h
Temperature: 91°F , 33°C
Dew Point: 57°F , 14°C
Humidity: 32%
Barometer: 29.84 inHg , 1010.5 hPa
Clouds: Clear
Visibility: 10 miles , 16 km
2014/07/25 19:35 KVIS 251935Z AUTO 29004KT 10SM CLR 33/14 A2984 RMK AO1

Metar display script from Saratoga-Weather.org



Visitor Map

Locations of visitors to this page